SLAYR23 KNIP-KNIP
Flight info
| Callsign | SLAYR23 |
|---|---|
| Flight time | N/A |
| Altitude | 9000 |
| Route | VFR |
| Aircraft | H60/L-DV/C |
Departure
| Time | 2026-05-08 00:15 |
|---|---|
| Airport | Jacksonville Naval Air Station (Towers Field) (KNIP) |
Arrival
| Time | N/A |
|---|---|
| Airport | Jacksonville Naval Air Station (Towers Field) (KNIP) |
| Time | Latitude | Longitude | Altitude | Speed | Heading |
|---|---|---|---|---|---|
| 2026-05-08 00:13 | 30.22573 | -81.66634 | 7 ft | 0 kts | 113° |
| 2026-05-08 00:13 | 30.22587 | -81.66632 | 14 ft | 6 kts | 346° |
| 2026-05-08 00:14 | 30.22599 | -81.66653 | 31 ft | 3 kts | 270° |
| 2026-05-08 00:14 | 30.22602 | -81.66704 | 29 ft | 8 kts | 282° |
| 2026-05-08 00:14 | 30.22645 | -81.66724 | 28 ft | 7 kts | 357° |
| 2026-05-08 00:14 | 30.22692 | -81.66720 | 30 ft | 10 kts | 12° |
| 2026-05-08 00:15 | 30.22778 | -81.66692 | 41 ft | 16 kts | 3° |
| 2026-05-08 00:15 | 30.23137 | -81.66682 | 244 ft | 108 kts | 0° |
| 2026-05-08 00:15 | 30.24091 | -81.66639 | 788 ft | 155 kts | 2° |
| 2026-05-08 00:15 | 30.24966 | -81.65989 | 642 ft | 156 kts | 56° |
| 2026-05-08 00:16 | 30.24776 | -81.64832 | 706 ft | 172 kts | 133° |
| 2026-05-08 00:16 | 30.23779 | -81.64153 | 672 ft | 166 kts | 158° |
| 2026-05-08 00:16 | 30.22743 | -81.63603 | 712 ft | 159 kts | 172° |
| 2026-05-08 00:16 | 30.21723 | -81.63898 | 737 ft | 154 kts | 208° |
| 2026-05-08 00:17 | 30.20733 | -81.64432 | 734 ft | 160 kts | 208° |
| 2026-05-08 00:17 | 30.19713 | -81.64971 | 734 ft | 162 kts | 208° |
| 2026-05-08 00:17 | 30.18682 | -81.65501 | 734 ft | 163 kts | 208° |
| 2026-05-08 00:17 | 30.17769 | -81.66138 | 743 ft | 153 kts | 221° |
| 2026-05-08 00:18 | 30.16916 | -81.66918 | 737 ft | 158 kts | 221° |
| 2026-05-08 00:18 | 30.16034 | -81.67708 | 738 ft | 163 kts | 220° |
| 2026-05-08 00:18 | 30.14948 | -81.68114 | 748 ft | 168 kts | 188° |
| 2026-05-08 00:18 | 30.13785 | -81.67996 | 744 ft | 165 kts | 179° |
| 2026-05-08 00:19 | 30.12656 | -81.67864 | 741 ft | 164 kts | 179° |
| 2026-05-08 00:19 | 30.11537 | -81.67601 | 730 ft | 166 kts | 162° |
| 2026-05-08 00:19 | 30.10512 | -81.67024 | 739 ft | 167 kts | 160° |
| 2026-05-08 00:19 | 30.09458 | -81.66455 | 737 ft | 168 kts | 160° |
| 2026-05-08 00:20 | 30.08407 | -81.65878 | 738 ft | 167 kts | 160° |
| 2026-05-08 00:20 | 30.07346 | -81.65326 | 736 ft | 167 kts | 160° |
| 2026-05-08 00:20 | 30.06297 | -81.64786 | 734 ft | 165 kts | 160° |
| 2026-05-08 00:20 | 30.05250 | -81.64230 | 734 ft | 168 kts | 160° |
| 2026-05-08 00:21 | 30.04180 | -81.63652 | 727 ft | 169 kts | 160° |
| 2026-05-08 00:21 | 30.03153 | -81.63084 | 730 ft | 162 kts | 160° |
| 2026-05-08 00:21 | 30.02135 | -81.62495 | 731 ft | 166 kts | 160° |
| 2026-05-08 00:21 | 30.01112 | -81.61916 | 732 ft | 166 kts | 160° |
| 2026-05-08 00:22 | 30.00050 | -81.61352 | 730 ft | 165 kts | 160° |
| 2026-05-08 00:22 | 29.99005 | -81.60785 | 737 ft | 168 kts | 160° |
| 2026-05-08 00:22 | 29.97946 | -81.60213 | 729 ft | 167 kts | 160° |
| 2026-05-08 00:22 | 29.96917 | -81.59650 | 730 ft | 166 kts | 160° |
| 2026-05-08 00:23 | 29.95859 | -81.59097 | 728 ft | 167 kts | 160° |
| 2026-05-08 00:23 | 29.94819 | -81.58513 | 729 ft | 166 kts | 160° |
| 2026-05-08 00:23 | 29.93773 | -81.57945 | 727 ft | 165 kts | 160° |
| 2026-05-08 00:23 | 29.92739 | -81.57381 | 724 ft | 164 kts | 160° |
| 2026-05-08 00:24 | 29.91713 | -81.56788 | 727 ft | 166 kts | 160° |
| 2026-05-08 00:24 | 29.90667 | -81.56225 | 733 ft | 165 kts | 160° |
| 2026-05-08 00:24 | 29.89632 | -81.55660 | 737 ft | 164 kts | 160° |
| 2026-05-08 00:24 | 29.88602 | -81.55102 | 738 ft | 164 kts | 160° |
| 2026-05-08 00:25 | 29.87570 | -81.54546 | 737 ft | 163 kts | 160° |
| 2026-05-08 00:25 | 29.86535 | -81.54024 | 737 ft | 162 kts | 160° |
| 2026-05-08 00:25 | 29.85510 | -81.53482 | 739 ft | 163 kts | 160° |
| 2026-05-08 00:25 | 29.84477 | -81.52941 | 735 ft | 162 kts | 160° |
| 2026-05-08 00:26 | 29.83455 | -81.52423 | 739 ft | 161 kts | 160° |
| 2026-05-08 00:26 | 29.82417 | -81.51904 | 740 ft | 163 kts | 160° |
| 2026-05-08 00:26 | 29.81377 | -81.51381 | 740 ft | 164 kts | 160° |
| 2026-05-08 00:26 | 29.80333 | -81.50841 | 734 ft | 165 kts | 160° |
| 2026-05-08 00:27 | 29.79280 | -81.50338 | 732 ft | 163 kts | 160° |
| 2026-05-08 00:27 | 29.78244 | -81.49802 | 737 ft | 164 kts | 160° |
| 2026-05-08 00:27 | 29.77188 | -81.49288 | 736 ft | 165 kts | 160° |
| 2026-05-08 00:27 | 29.76138 | -81.48756 | 731 ft | 164 kts | 160° |
| 2026-05-08 00:28 | 29.75099 | -81.48191 | 728 ft | 166 kts | 160° |
| 2026-05-08 00:28 | 29.74048 | -81.47615 | 732 ft | 167 kts | 160° |
| 2026-05-08 00:28 | 29.73002 | -81.47071 | 735 ft | 165 kts | 160° |
| 2026-05-08 00:28 | 29.71965 | -81.46477 | 730 ft | 167 kts | 160° |
| 2026-05-08 00:29 | 29.70924 | -81.45910 | 731 ft | 163 kts | 160° |
| 2026-05-08 00:29 | 29.69897 | -81.45357 | 734 ft | 164 kts | 160° |
| 2026-05-08 00:29 | 29.68853 | -81.44806 | 729 ft | 165 kts | 160° |
| 2026-05-08 00:29 | 29.67822 | -81.44243 | 730 ft | 163 kts | 160° |
| 2026-05-08 00:30 | 29.66803 | -81.43664 | 733 ft | 163 kts | 160° |
| 2026-05-08 00:30 | 29.65784 | -81.43099 | 736 ft | 162 kts | 160° |
| 2026-05-08 00:30 | 29.64765 | -81.42556 | 737 ft | 161 kts | 160° |
| 2026-05-08 00:30 | 29.63759 | -81.41993 | 733 ft | 161 kts | 160° |
| 2026-05-08 00:31 | 29.62742 | -81.41454 | 733 ft | 160 kts | 160° |
| 2026-05-08 00:31 | 29.61739 | -81.40913 | 732 ft | 159 kts | 160° |
| 2026-05-08 00:31 | 29.60723 | -81.40382 | 733 ft | 161 kts | 160° |
| 2026-05-08 00:31 | 29.59694 | -81.39876 | 735 ft | 161 kts | 160° |
| 2026-05-08 00:32 | 29.58667 | -81.39360 | 729 ft | 161 kts | 160° |
| 2026-05-08 00:32 | 29.57669 | -81.38822 | 730 ft | 161 kts | 160° |
| 2026-05-08 00:32 | 29.56629 | -81.38292 | 732 ft | 162 kts | 160° |
| 2026-05-08 00:32 | 29.55587 | -81.37779 | 727 ft | 163 kts | 160° |
| 2026-05-08 00:33 | 29.54568 | -81.37234 | 732 ft | 160 kts | 160° |
| 2026-05-08 00:33 | 29.53558 | -81.36694 | 737 ft | 161 kts | 160° |
| 2026-05-08 00:33 | 29.52529 | -81.36159 | 740 ft | 164 kts | 160° |
| 2026-05-08 00:33 | 29.51503 | -81.35606 | 738 ft | 162 kts | 160° |
| 2026-05-08 00:34 | 29.50466 | -81.35082 | 736 ft | 162 kts | 160° |
| 2026-05-08 00:34 | 29.49440 | -81.34555 | 743 ft | 162 kts | 160° |
| 2026-05-08 00:34 | 29.48420 | -81.34011 | 736 ft | 162 kts | 160° |
| 2026-05-08 00:34 | 29.47400 | -81.33508 | 738 ft | 161 kts | 160° |
| 2026-05-08 00:35 | 29.46374 | -81.33004 | 739 ft | 160 kts | 160° |
| 2026-05-08 00:35 | 29.45342 | -81.32485 | 742 ft | 160 kts | 160° |
| 2026-05-08 00:35 | 29.44334 | -81.31957 | 741 ft | 159 kts | 160° |
| 2026-05-08 00:35 | 29.43330 | -81.31463 | 742 ft | 160 kts | 160° |
| 2026-05-08 00:36 | 29.42304 | -81.30967 | 738 ft | 161 kts | 160° |
| 2026-05-08 00:36 | 29.41276 | -81.30466 | 740 ft | 161 kts | 160° |
| 2026-05-08 00:36 | 29.40245 | -81.29974 | 734 ft | 160 kts | 160° |
| 2026-05-08 00:36 | 29.39217 | -81.29481 | 739 ft | 160 kts | 160° |
| 2026-05-08 00:37 | 29.38200 | -81.28968 | 743 ft | 159 kts | 160° |
| 2026-05-08 00:37 | 29.37190 | -81.28450 | 744 ft | 158 kts | 160° |
| 2026-05-08 00:37 | 29.36169 | -81.27955 | 738 ft | 161 kts | 160° |
| 2026-05-08 00:38 | 29.34116 | -81.26878 | 737 ft | 164 kts | 160° |
| 2026-05-08 00:38 | 29.33076 | -81.26345 | 728 ft | 165 kts | 160° |
| 2026-05-08 00:38 | 29.32021 | -81.25803 | 729 ft | 167 kts | 160° |
| 2026-05-08 00:38 | 29.30957 | -81.25255 | 725 ft | 167 kts | 160° |
| 2026-05-08 00:39 | 29.29897 | -81.24709 | 732 ft | 169 kts | 160° |
| 2026-05-08 00:39 | 29.28838 | -81.24157 | 712 ft | 166 kts | 152° |
| 2026-05-08 00:39 | 29.28044 | -81.23212 | 753 ft | 167 kts | 133° |
| 2026-05-08 00:39 | 29.27267 | -81.22200 | 735 ft | 170 kts | 133° |
| 2026-05-08 00:40 | 29.26496 | -81.21168 | 731 ft | 171 kts | 133° |
| 2026-05-08 00:40 | 29.25716 | -81.20139 | 729 ft | 172 kts | 133° |
| 2026-05-08 00:40 | 29.24923 | -81.19136 | 732 ft | 168 kts | 133° |
| 2026-05-08 00:40 | 29.24130 | -81.18148 | 733 ft | 170 kts | 133° |
| 2026-05-08 00:41 | 29.23334 | -81.17146 | 728 ft | 170 kts | 133° |
| 2026-05-08 00:41 | 29.22529 | -81.16149 | 730 ft | 171 kts | 133° |
| 2026-05-08 00:41 | 29.21740 | -81.15125 | 738 ft | 171 kts | 133° |
| 2026-05-08 00:41 | 29.21004 | -81.14059 | 740 ft | 170 kts | 133° |
| 2026-05-08 00:42 | 29.20272 | -81.12997 | 741 ft | 170 kts | 133° |
| 2026-05-08 00:42 | 29.19527 | -81.11947 | 738 ft | 169 kts | 133° |
| 2026-05-08 00:42 | 29.18771 | -81.10929 | 739 ft | 167 kts | 133° |
| 2026-05-08 00:42 | 29.18033 | -81.09907 | 742 ft | 168 kts | 133° |
| 2026-05-08 00:43 | 29.17291 | -81.08856 | 743 ft | 171 kts | 133° |
| 2026-05-08 00:43 | 29.16540 | -81.07789 | 740 ft | 173 kts | 133° |
| 2026-05-08 00:43 | 29.15788 | -81.06710 | 741 ft | 173 kts | 133° |
| 2026-05-08 00:43 | 29.15039 | -81.05626 | 741 ft | 174 kts | 133° |
| 2026-05-08 00:44 | 29.14280 | -81.04558 | 743 ft | 171 kts | 133° |
| 2026-05-08 00:44 | 29.13504 | -81.03541 | 736 ft | 169 kts | 133° |
| 2026-05-08 00:44 | 29.12742 | -81.02537 | 742 ft | 166 kts | 133° |
| 2026-05-08 00:44 | 29.12003 | -81.01515 | 744 ft | 168 kts | 133° |
| 2026-05-08 00:45 | 29.11243 | -81.00477 | 733 ft | 172 kts | 133° |
| 2026-05-08 00:45 | 29.10456 | -80.99434 | 732 ft | 176 kts | 133° |
| 2026-05-08 00:45 | 29.09653 | -80.98380 | 731 ft | 175 kts | 133° |
| 2026-05-08 00:45 | 29.09223 | -80.97161 | 726 ft | 163 kts | 79° |
| 2026-05-08 00:46 | 29.09651 | -80.95999 | 718 ft | 165 kts | 61° |
| 2026-05-08 00:46 | 29.10188 | -80.94843 | 743 ft | 167 kts | 61° |
| 2026-05-08 00:46 | 29.10591 | -80.93651 | 747 ft | 154 kts | 82° |
| 2026-05-08 00:46 | 29.10402 | -80.92479 | 742 ft | 151 kts | 118° |
| 2026-05-08 00:47 | 29.09624 | -80.91760 | 729 ft | 150 kts | 158° |
| 2026-05-08 00:47 | 29.08671 | -80.91182 | 726 ft | 159 kts | 157° |
| 2026-05-08 00:47 | 29.07673 | -80.90636 | 731 ft | 162 kts | 158° |
| 2026-05-08 00:47 | 29.06633 | -80.90080 | 730 ft | 163 kts | 158° |
| 2026-05-08 00:48 | 29.05623 | -80.89534 | 733 ft | 163 kts | 157° |
| 2026-05-08 00:48 | 29.04590 | -80.88991 | 732 ft | 164 kts | 158° |
| 2026-05-08 00:48 | 29.03553 | -80.88450 | 728 ft | 164 kts | 158° |
| 2026-05-08 00:48 | 29.02519 | -80.87904 | 732 ft | 163 kts | 158° |
| 2026-05-08 00:49 | 29.01490 | -80.87358 | 732 ft | 163 kts | 157° |
| 2026-05-08 00:49 | 29.00452 | -80.86820 | 731 ft | 164 kts | 157° |
| 2026-05-08 00:49 | 28.99421 | -80.86274 | 732 ft | 163 kts | 157° |
| 2026-05-08 00:49 | 28.98392 | -80.85721 | 734 ft | 163 kts | 158° |
| 2026-05-08 00:50 | 28.97359 | -80.85168 | 732 ft | 164 kts | 157° |
| 2026-05-08 00:50 | 28.96327 | -80.84625 | 731 ft | 163 kts | 157° |
| 2026-05-08 00:50 | 28.95300 | -80.84076 | 733 ft | 163 kts | 157° |
| 2026-05-08 00:50 | 28.94262 | -80.83533 | 737 ft | 164 kts | 157° |
| 2026-05-08 00:51 | 28.93220 | -80.82992 | 739 ft | 164 kts | 157° |
| 2026-05-08 00:51 | 28.92185 | -80.82448 | 731 ft | 164 kts | 157° |
| 2026-05-08 00:51 | 28.91148 | -80.81912 | 732 ft | 163 kts | 158° |
| 2026-05-08 00:51 | 28.90136 | -80.81351 | 733 ft | 161 kts | 157° |
| 2026-05-08 00:52 | 28.89134 | -80.80780 | 731 ft | 161 kts | 157° |
| 2026-05-08 00:52 | 28.88133 | -80.80219 | 734 ft | 160 kts | 157° |
| 2026-05-08 00:52 | 28.87467 | -80.79857 | 733 ft | 160 kts | 157° |
| 2026-05-08 00:52 | 28.86463 | -80.79307 | 733 ft | 160 kts | 157° |
| 2026-05-08 00:53 | 28.85453 | -80.78744 | 730 ft | 163 kts | 157° |
| 2026-05-08 00:53 | 28.84431 | -80.78182 | 731 ft | 163 kts | 157° |
| 2026-05-08 00:53 | 28.83402 | -80.77642 | 732 ft | 162 kts | 157° |
| 2026-05-08 00:53 | 28.82387 | -80.77082 | 719 ft | 162 kts | 157° |
| 2026-05-08 00:54 | 28.81375 | -80.76524 | 723 ft | 161 kts | 157° |
| 2026-05-08 00:54 | 28.80374 | -80.75971 | 730 ft | 158 kts | 157° |
| 2026-05-08 00:54 | 28.79395 | -80.75407 | 726 ft | 157 kts | 157° |
| 2026-05-08 00:54 | 28.78410 | -80.74852 | 727 ft | 159 kts | 157° |
| 2026-05-08 00:55 | 28.77404 | -80.74325 | 731 ft | 159 kts | 157° |
| 2026-05-08 00:55 | 28.76402 | -80.73794 | 729 ft | 158 kts | 157° |
| 2026-05-08 00:55 | 28.75404 | -80.73264 | 722 ft | 159 kts | 157° |
| 2026-05-08 00:55 | 28.74409 | -80.72743 | 720 ft | 156 kts | 157° |
| 2026-05-08 00:56 | 28.73435 | -80.72212 | 721 ft | 155 kts | 157° |
| 2026-05-08 00:56 | 28.72461 | -80.71683 | 724 ft | 156 kts | 157° |
| 2026-05-08 00:56 | 28.71482 | -80.71143 | 727 ft | 157 kts | 157° |
| 2026-05-08 00:56 | 28.70491 | -80.70620 | 724 ft | 158 kts | 157° |
| 2026-05-08 00:57 | 28.69494 | -80.70094 | 717 ft | 158 kts | 157° |
| 2026-05-08 00:57 | 28.68497 | -80.69566 | 719 ft | 159 kts | 157° |
| 2026-05-08 00:57 | 28.67490 | -80.69053 | 724 ft | 158 kts | 158° |
| 2026-05-08 00:57 | 28.66484 | -80.68533 | 724 ft | 159 kts | 158° |
| 2026-05-08 00:58 | 28.65487 | -80.68012 | 728 ft | 158 kts | 157° |
| 2026-05-08 00:58 | 28.64484 | -80.67495 | 722 ft | 158 kts | 158° |
| 2026-05-08 00:58 | 28.63498 | -80.66963 | 722 ft | 156 kts | 157° |
| 2026-05-08 00:58 | 28.62520 | -80.66445 | 724 ft | 154 kts | 157° |
| 2026-05-08 00:59 | 28.61538 | -80.65976 | 712 ft | 149 kts | 174° |
| 2026-05-08 00:59 | 28.60857 | -80.66740 | 775 ft | 152 kts | 242° |
| 2026-05-08 00:59 | 28.60322 | -80.67840 | 740 ft | 164 kts | 238° |
| 2026-05-08 00:59 | 28.60174 | -80.69017 | 710 ft | 154 kts | 312° |
| 2026-05-08 01:00 | 28.61049 | -80.69800 | 719 ft | 170 kts | 320° |
| 2026-05-08 01:00 | 28.61996 | -80.70646 | 724 ft | 177 kts | 320° |
| 2026-05-08 01:00 | 28.62952 | -80.71528 | 723 ft | 172 kts | 320° |
| 2026-05-08 01:00 | 28.63875 | -80.72360 | 719 ft | 170 kts | 320° |
| 2026-05-08 01:01 | 28.64832 | -80.73190 | 718 ft | 175 kts | 320° |
| 2026-05-08 01:01 | 28.65788 | -80.74031 | 716 ft | 175 kts | 320° |
| 2026-05-08 01:01 | 28.66753 | -80.74855 | 718 ft | 172 kts | 320° |
| 2026-05-08 01:01 | 28.67695 | -80.75688 | 740 ft | 170 kts | 320° |
| 2026-05-08 01:02 | 28.68670 | -80.76471 | 692 ft | 180 kts | 336° |
| 2026-05-08 01:02 | 28.69814 | -80.76026 | 622 ft | 194 kts | 51° |
| 2026-05-08 01:02 | 28.70550 | -80.74979 | 735 ft | 166 kts | 51° |
| 2026-05-08 01:02 | 28.71297 | -80.73919 | 741 ft | 175 kts | 51° |
| 2026-05-08 01:03 | 28.71980 | -80.72798 | 738 ft | 166 kts | 78° |
| 2026-05-08 01:03 | 28.71341 | -80.71940 | 799 ft | 149 kts | 161° |
| 2026-05-08 01:03 | 28.70298 | -80.71461 | 759 ft | 166 kts | 161° |
| 2026-05-08 01:03 | 28.69205 | -80.70956 | 742 ft | 170 kts | 161° |
| 2026-05-08 01:04 | 28.68108 | -80.70705 | 709 ft | 156 kts | 194° |
| 2026-05-08 01:04 | 28.66995 | -80.71039 | 726 ft | 173 kts | 196° |
| 2026-05-08 01:04 | 28.65853 | -80.71362 | 750 ft | 169 kts | 197° |
| 2026-05-08 01:04 | 28.64735 | -80.71436 | 827 ft | 164 kts | 166° |
| 2026-05-08 01:05 | 28.63676 | -80.70870 | 199 ft | 162 kts | 151° |
| 2026-05-08 01:05 | 28.62833 | -80.70313 | 208 ft | 127 kts | 153° |
| 2026-05-08 01:05 | 28.62081 | -80.69823 | 71 ft | 116 kts | 153° |
| 2026-05-08 01:05 | 28.61532 | -80.69464 | 101 ft | 76 kts | 152° |
| 2026-05-08 01:06 | 28.61168 | -80.69229 | 55 ft | 30 kts | 148° |
| 2026-05-08 01:06 | 28.61154 | -80.69220 | 35 ft | 5 kts | 151° |
| 2026-05-08 01:06 | 28.61141 | -80.69209 | 31 ft | 5 kts | 149° |
| 2026-05-08 01:06 | 28.61120 | -80.69195 | 22 ft | 4 kts | 150° |
| 2026-05-08 01:07 | 28.61092 | -80.69176 | 18 ft | 6 kts | 149° |
| 2026-05-08 01:07 | 28.61053 | -80.69151 | 16 ft | 4 kts | 148° |
| 2026-05-08 01:07 | 28.61042 | -80.69144 | 16 ft | 0 kts | 147° |